Overview Statistics Trail Chart Weather Telemetry Raw packets
 

This is the latest recevied weather packets stored in our database for station/object N0OQA. If no packets are shown the sender has not sent any weather packets the latest 10 day(s).

<< 21 22 23 24 25 26 27 >>
Time Temp. Humidity Pressure Rain* Wind** Luminosity Snow
1788287500 29.44° C 39% 1016.7 hPa 0 mm - - -
1788286890 29.44° C 43% 1016.8 hPa 0 mm - - -
1788286589 29.44° C 43% 1016.9 hPa 0 mm - - -
1788285688 29.44° C 41% 1017 hPa 0 mm - - -
1788285388 29.44° C 40% 1017.1 hPa 0 mm - - -
1788285088 28.89° C 44% 1017.2 hPa 0 mm - - -
1788284787 28.33° C 45% 1017.1 hPa 0 mm - - -
1788283286 27.78° C 49% 1017.3 hPa 0 mm - - -
1788282685 26.67° C 52% 1017.3 hPa 0 mm - - -
1788279681 24.44° C 63% 1017.5 hPa 0 mm - - -
1788277579 22.78° C 71% 1017.6 hPa 0 mm - - -
1788277278 22.78° C 71% 1017.6 hPa 0 mm - - -
1788276077 22.22° C 77% 1017.5 hPa 0 mm - - -
1788275776 21.67° C 78% 1017.6 hPa 0 mm - - -
1788275476 21.11° C 80% 1017.6 hPa 0 mm - - -
1788275176 21.11° C 83% 1017.6 hPa 0 mm - - -
1788274275 20.56° C 88% 1017.6 hPa 0 mm - - -
1788273074 19.44° C 97% 1017.6 hPa 0 mm - - -
1788272473 18.89° C 100% 1017.6 hPa 0 mm - - -
1788270686 18.33° C 100% 1017.6 hPa 0 mm - - -
1788270371 17.78° C 100% 1017.7 hPa 0 mm - - -
1788269470 17.78° C 100% 1017.5 hPa 0 mm - - -
1788266766 15.56° C 100% 1017 hPa 0 mm - - -
1788264055 15° C 100% 1016.5 hPa 0 mm - - -
1788263754 15° C 100% 1016.5 hPa 0 mm - - -

* Rain since midnight (hover to see other rain measurements)
** Current wind speed in m/s (hover to see current wind gust speed)